Amery, Wisconsin
Current Conditions -  °F | °C
As of 7:15 PM on Thursday 27 Nov 2014 (Local Time) from KRNH Reporting Station
Clear Clear  
Wind Chill: -1°   Ceiling: Unl
Heat Index:   Visibility: 10mi
Dew Point: -1°   Wind: 5mph
Humidity: 67%   Direction: 200°SSW
Pressure: 30.34"   Gusts: NA
Location:  45.31°N, 92.36°W
Report Text: KRNH 280115Z AUTO 20004KT 10SM CLR M13/M18 A3034 RMK AO2 T11351185
Loading
Personal Weather Stations






























Interactive Weather Map New forecast layout! Learn more

10-Day Weather Forecast

Advertisements
Track Severe Weather on mobile